Time;durP1;ratioP1;P1;durP2;ratioP2;P2;SDS_P1;SDS_P2;PMS_P1;PMS_P2;Temp;Humidity;BMP_temperature;BMP_pressure;BME280_temperature;BME280_humidity;BME280_pressure;Samples;Min_cycle;Max_cycle;Signal;HPM_P1;HPM_P2
2021/03/23 00:01:15;;;;;;;2.67;1.60;;;;;;;6.28;42.43;99804.66;5059087;28;20375;-80
2021/03/23 00:03:47;;;;;;;3.00;2.00;;;;;;;6.28;42.35;99793.59;5024857;28;20495;-80
2021/03/23 00:06:20;;;;;;;1.98;1.77;;;;;;;6.30;40.95;99793.25;5040515;28;20415;-79
2021/03/23 00:08:50;;;;;;;1.60;1.27;;;;;;;6.22;42.11;99783.88;5040624;28;20108;-79
2021/03/23 00:11:37;;;;;;;2.65;1.30;;;;;;;6.25;42.71;99791.50;5040765;28;20096;-79
2021/03/23 00:14:05;;;;;;;4.88;1.67;;;;;;;6.26;42.36;99795.88;5040671;28;20427;-79
2021/03/23 00:16:36;;;;;;;3.88;1.20;;;;;;;6.32;42.38;99795.66;5040118;28;20037;-79
2021/03/23 00:19:02;;;;;;;1.25;0.90;;;;;;;6.17;42.45;99797.94;5036966;28;20049;-79
2021/03/23 00:21:28;;;;;;;3.70;1.42;;;;;;;6.20;43.04;99802.78;5036852;28;20479;-79
2021/03/23 00:23:55;;;;;;;2.38;1.27;;;;;;;6.14;42.73;99781.25;5038468;28;20033;-79
2021/03/23 00:26:21;;;;;;;4.03;2.03;;;;;;;6.20;42.47;99782.63;5036840;28;20136;-80
2021/03/23 00:28:48;;;;;;;3.60;1.20;;;;;;;6.16;42.31;99781.69;5037342;28;20416;-79
2021/03/23 00:31:18;;;;;;;3.58;1.10;;;;;;;6.18;41.81;99783.00;5020567;28;20038;-79
2021/03/23 00:33:44;;;;;;;2.08;1.88;;;;;;;6.15;41.88;99775.38;5036819;28;20030;-79
2021/03/23 00:36:11;;;;;;;2.50;1.80;;;;;;;6.17;41.95;99784.13;5036747;28;20029;-79
2021/03/23 00:38:39;;;;;;;6.65;1.85;;;;;;;5.99;42.40;99763.38;5037650;28;20113;-79
2021/03/23 00:41:07;;;;;;;2.88;1.05;;;;;;;6.12;42.51;99770.53;5036785;28;20064;-79
2021/03/23 00:43:33;;;;;;;5.97;2.05;;;;;;;6.08;42.17;99769.63;5037613;28;20526;-79
2021/03/23 00:45:59;;;;;;;2.88;1.98;;;;;;;6.13;41.10;99774.91;5036491;28;20029;-79
2021/03/23 00:48:24;;;;;;;3.42;1.70;;;;;;;6.14;41.30;99784.81;5036274;28;20411;-79
2021/03/23 00:50:50;;;;;;;2.20;1.40;;;;;;;5.95;41.67;99760.47;5035892;28;20468;-79
2021/03/23 00:53:16;;;;;;;6.63;1.55;;;;;;;6.04;41.75;99775.00;5036205;28;20037;-79
2021/03/23 00:55:42;;;;;;;2.53;1.27;;;;;;;6.09;41.81;99779.50;5036528;28;20034;-80
2021/03/23 00:58:07;;;;;;;3.85;1.30;;;;;;;6.08;41.05;99786.19;5035855;28;20368;-79
2021/03/23 01:00:34;;;;;;;2.70;1.00;;;;;;;6.06;41.71;99774.66;5036371;28;20120;-79
2021/03/23 01:03:00;;;;;;;2.72;1.60;;;;;;;6.02;41.43;99793.88;5036288;28;20080;-79
2021/03/23 01:05:29;;;;;;;1.95;1.20;;;;;;;6.07;40.91;99794.78;5036247;28;20079;-79
2021/03/23 01:07:58;;;;;;;1.90;1.17;;;;;;;6.06;41.14;99793.19;5035879;28;20045;-79
2021/03/23 01:10:27;;;;;;;2.38;1.23;;;;;;;6.10;40.50;99794.13;5035887;28;20038;-80
2021/03/23 01:12:53;;;;;;;1.30;1.20;;;;;;;5.99;41.33;99779.94;5036096;28;20068;-79
2021/03/23 01:15:24;;;;;;;1.25;1.15;;;;;;;5.86;41.14;99764.44;5035929;28;20037;-79
2021/03/23 01:17:50;;;;;;;4.28;1.00;;;;;;;6.07;41.08;99809.41;5035412;28;20033;-81
2021/03/23 01:20:18;;;;;;;4.03;0.85;;;;;;;6.01;40.97;99791.44;5036484;28;20057;-80
2021/03/23 01:22:44;;;;;;;1.33;0.73;;;;;;;5.87;41.44;99777.94;5035832;28;20560;-79
2021/03/23 01:25:11;;;;;;;1.10;1.00;;;;;;;5.97;41.09;99785.81;5035840;28;20067;-80
2021/03/23 01:27:36;;;;;;;1.10;0.90;;;;;;;6.05;40.80;99775.81;5036210;28;20384;-80
2021/03/23 01:30:05;;;;;;;1.85;0.80;;;;;;;6.03;40.97;99794.69;5035840;28;20034;-80
2021/03/23 01:32:30;;;;;;;1.20;0.85;;;;;;;5.95;41.54;99779.00;5035618;28;20376;-81
2021/03/23 01:34:56;;;;;;;1.67;0.80;;;;;;;5.98;40.93;99794.91;5035321;28;20040;-80
2021/03/23 01:37:21;;;;;;;0.80;0.80;;;;;;;5.99;41.43;99793.75;5035408;28;20036;-80
2021/03/23 01:39:47;;;;;;;2.33;1.65;;;;;;;5.90;41.76;99779.19;5035712;28;20033;-80
2021/03/23 01:42:14;;;;;;;1.83;0.80;;;;;;;5.91;41.30;99781.66;5035219;28;20148;-80
2021/03/23 01:44:42;;;;;;;3.45;1.10;;;;;;;5.83;41.17;99757.69;5035215;28;20034;-80
2021/03/23 01:47:08;;;;;;;4.32;0.90;;;;;;;5.96;41.33;99769.56;5036612;28;20060;-80
2021/03/23 01:49:42;;;;;;;3.22;0.90;;;;;;;5.83;40.99;99773.44;5035437;28;20029;-79
2021/03/23 01:52:19;;;;;;;3.30;0.82;;;;;;;5.91;41.05;99784.44;5036451;28;20112;-80
2021/03/23 01:55:13;;;;;;;1.75;1.05;;;;;;;5.91;41.73;99778.03;5036363;28;20033;-79
2021/03/23 01:57:40;;;;;;;1.88;1.08;;;;;;;5.81;41.03;99759.97;5034862;28;20022;-80
2021/03/23 02:00:09;;;;;;;1.23;0.93;;;;;;;5.83;40.32;99767.91;5038320;28;20041;-79
2021/03/23 02:02:36;;;;;;;1.55;0.88;;;;;;;5.69;40.55;99738.66;5038564;28;20036;-80
2021/03/23 02:05:03;;;;;;;6.75;0.90;;;;;;;5.82;40.61;99767.13;5038237;28;20040;-79
2021/03/23 02:07:29;;;;;;;2.05;0.77;;;;;;;5.74;40.83;99738.44;5037172;28;20069;-80
2021/03/23 02:09:56;;;;;;;2.78;0.90;;;;;;;5.82;40.30;99752.50;5034796;28;20064;-80
2021/03/23 02:12:27;;;;;;;0.93;0.63;;;;;;;5.87;39.89;99755.84;5036816;28;20476;-80
2021/03/23 02:14:53;;;;;;;0.60;0.60;;;;;;;5.62;40.84;99712.75;5036649;28;20136;-80
2021/03/23 02:17:19;;;;;;;5.18;0.70;;;;;;;5.75;40.60;99753.88;5036289;28;20187;-81
2021/03/23 02:19:45;;;;;;;0.73;0.70;;;;;;;5.67;41.28;99748.44;5035341;28;20508;-80
2021/03/23 02:22:21;;;;;;;0.70;0.70;;;;;;;5.70;41.38;99740.28;5033426;28;20041;-79
2021/03/23 02:24:48;;;;;;;1.40;0.70;;;;;;;5.53;41.85;99726.63;5034666;28;20040;-80
2021/03/23 02:27:14;;;;;;;3.95;1.05;;;;;;;5.59;41.86;99722.50;5035709;28;20104;-79
2021/03/23 02:29:40;;;;;;;1.17;0.80;;;;;;;5.74;41.33;99737.63;5036714;28;20124;-81
2021/03/23 02:32:06;;;;;;;0.60;0.60;;;;;;;5.72;41.75;99745.44;5037191;28;20063;-81
2021/03/23 02:34:31;;;;;;;2.45;0.98;;;;;;;5.67;41.40;99738.19;5035842;28;20022;-80
2021/03/23 02:36:57;;;;;;;1.92;0.73;;;;;;;5.61;42.02;99736.81;5036453;28;20044;-80
2021/03/23 02:39:27;;;;;;;0.85;0.82;;;;;;;5.52;42.46;99730.56;5036213;28;20093;-80
2021/03/23 02:41:54;;;;;;;0.98;0.85;;;;;;;5.58;42.32;99740.22;5035097;28;20029;-80
2021/03/23 02:44:20;;;;;;;0.77;0.65;;;;;;;5.52;42.50;99727.78;5035937;28;20033;-80
2021/03/23 02:46:46;;;;;;;1.65;0.80;;;;;;;5.59;43.04;99736.31;5034246;28;20033;-80
2021/03/23 02:49:11;;;;;;;2.22;0.80;;;;;;;5.51;41.83;99745.50;5034864;28;20467;-80
2021/03/23 02:51:37;;;;;;;2.95;0.90;;;;;;;5.50;42.12;99738.38;5036897;28;20040;-80
2021/03/23 02:54:04;;;;;;;0.82;0.80;;;;;;;5.57;42.04;99755.19;5035643;28;20031;-81
2021/03/23 02:56:29;;;;;;;4.43;0.90;;;;;;;5.36;42.59;99740.59;5036929;28;20057;-80
2021/03/23 02:58:55;;;;;;;1.52;0.90;;;;;;;5.46;42.71;99760.31;5034035;28;20095;-79
2021/03/23 03:01:21;;;;;;;2.95;1.85;;;;;;;5.33;42.39;99752.34;5034774;28;20025;-80
2021/03/23 03:03:46;;;;;;;3.70;2.08;;;;;;;5.47;43.41;99769.41;5035300;28;20079;-80
2021/03/23 03:06:12;;;;;;;3.30;1.73;;;;;;;5.28;43.30;99738.75;5033970;28;20136;-80
2021/03/23 03:08:38;;;;;;;4.35;1.98;;;;;;;5.45;43.54;99764.22;5034562;28;20037;-80
2021/03/23 03:11:06;;;;;;;2.63;2.10;;;;;;;5.42;43.64;99778.69;5034798;28;20033;-80
2021/03/23 03:13:32;;;;;;;2.40;1.45;;;;;;;5.41;43.65;99765.22;5033846;28;20037;-80
2021/03/23 03:15:58;;;;;;;1.83;1.20;;;;;;;5.18;43.92;99748.25;5035217;28;20037;-80
2021/03/23 03:18:25;;;;;;;4.15;1.50;;;;;;;5.10;43.83;99738.88;5034202;28;20594;-80
2021/03/23 03:20:53;;;;;;;1.40;1.30;;;;;;;5.36;44.29;99795.78;5033126;28;20045;-79
2021/03/23 03:23:18;;;;;;;4.85;1.13;;;;;;;5.36;44.21;99776.47;5033896;28;20057;-80
2021/03/23 03:25:46;;;;;;;3.97;1.08;;;;;;;5.38;44.46;99793.50;5033600;28;20072;-79
2021/03/23 03:28:12;;;;;;;2.80;1.30;;;;;;;5.37;43.92;99789.13;5033661;28;20041;-80
2021/03/23 03:30:39;;;;;;;3.03;1.40;;;;;;;5.38;43.82;99779.69;5033195;28;20037;-79
2021/03/23 03:33:08;;;;;;;2.35;1.38;;;;;;;5.44;43.94;99798.47;5033559;28;20026;-80
2021/03/23 03:35:40;;;;;;;4.00;1.40;;;;;;;5.44;44.06;99783.88;5033141;28;20095;-79
2021/03/23 03:38:06;;;;;;;1.10;1.00;;;;;;;5.44;43.73;99805.97;5034868;28;20041;-80
2021/03/23 03:40:38;;;;;;;1.77;1.33;;;;;;;5.43;43.69;99785.00;5034067;28;20456;-80
2021/03/23 03:43:06;;;;;;;4.95;3.30;;;;;;;5.40;43.90;99797.53;5034294;28;20468;-80
2021/03/23 03:45:32;;;;;;;3.90;2.60;;;;;;;5.28;43.98;99791.16;5018694;28;20491;-80
2021/03/23 03:47:57;;;;;;;10.55;2.88;;;;;;;5.35;44.47;99791.41;5034808;28;20037;-80
2021/03/23 03:50:26;;;;;;;2.13;1.30;;;;;;;5.37;44.75;99794.63;5033619;28;20033;-80
2021/03/23 03:52:52;;;;;;;1.83;1.48;;;;;;;5.33;44.97;99816.59;5033946;28;20037;-79
2021/03/23 03:55:21;;;;;;;1.65;1.40;;;;;;;5.26;46.42;99827.34;5033323;28;20499;-79
2021/03/23 03:57:46;;;;;;;1.00;0.88;;;;;;;5.28;46.49;99818.75;5032928;28;20029;-79
2021/03/23 04:00:18;;;;;;;1.75;0.90;;;;;;;5.32;46.41;99825.19;5033251;28;20045;-80
2021/03/23 04:02:43;;;;;;;3.80;1.55;;;;;;;5.17;46.82;99821.91;5033375;28;20036;-80
2021/03/23 04:05:16;;;;;;;5.32;1.00;;;;;;;5.23;45.94;99823.31;5033528;28;20025;-80
2021/03/23 04:07:42;;;;;;;1.88;1.02;;;;;;;5.16;46.94;99825.78;5033961;28;20055;-80
2021/03/23 04:10:08;;;;;;;1.10;1.00;;;;;;;5.07;46.93;99830.56;5033319;28;20045;-79
2021/03/23 04:12:33;;;;;;;0.73;0.73;;;;;;;5.04;46.69;99828.47;5033578;28;20030;-80
2021/03/23 04:14:59;;;;;;;3.20;1.42;;;;;;;5.06;46.79;99837.22;5032843;28;20530;-81
2021/03/23 04:17:24;;;;;;;3.20;0.95;;;;;;;5.01;48.01;99842.94;5033549;28;20032;-80
2021/03/23 04:19:50;;;;;;;1.98;1.20;;;;;;;4.90;48.60;99837.00;5033318;28;20069;-79
2021/03/23 04:22:16;;;;;;;1.45;1.23;;;;;;;4.93;49.08;99841.84;5033419;28;20030;-79
2021/03/23 04:24:41;;;;;;;1.77;1.15;;;;;;;4.83;49.32;99830.38;5032915;28;20396;-80
2021/03/23 04:27:07;;;;;;;2.45;1.25;;;;;;;4.91;49.47;99859.88;5032749;28;20036;-79
2021/03/23 04:29:32;;;;;;;1.25;1.00;;;;;;;4.89;50.22;99862.13;5033288;28;20041;-79
2021/03/23 04:31:58;;;;;;;2.28;1.30;;;;;;;4.83;49.93;99864.25;5033639;28;20423;-79
2021/03/23 04:34:24;;;;;;;5.03;1.55;;;;;;;4.81;50.30;99861.03;5033084;28;20033;-79
2021/03/23 04:36:49;;;;;;;1.95;0.95;;;;;;;4.82;49.32;99861.84;5032917;28;20025;-79
2021/03/23 04:39:15;;;;;;;4.75;1.70;;;;;;;4.68;49.56;99856.56;5033079;28;20029;-79
2021/03/23 04:41:41;;;;;;;3.58;1.70;;;;;;;4.60;50.04;99838.13;5033004;28;20068;-79
2021/03/23 04:44:07;;;;;;;5.25;1.13;;;;;;;4.88;49.06;99866.03;5032670;28;20395;-80
2021/03/23 04:46:33;;;;;;;2.58;1.30;;;;;;;4.97;48.92;99872.31;5034901;28;20033;-81
2021/03/23 04:48:59;;;;;;;4.57;1.17;;;;;;;5.00;49.45;99891.72;5036264;28;20128;-80
2021/03/23 04:51:28;;;;;;;2.95;1.02;;;;;;;4.97;48.78;99883.34;5036391;28;20127;-80
2021/03/23 04:54:08;;;;;;;1.45;1.27;;;;;;;5.06;48.67;99894.31;5038182;28;20039;-79
2021/03/23 04:56:40;;;;;;;5.95;1.73;;;;;;;4.95;48.62;99878.16;5036697;28;20065;-79
2021/03/23 04:59:07;;;;;;;1.38;1.25;;;;;;;5.16;48.25;99889.22;5037771;28;20468;-79
2021/03/23 05:01:33;;;;;;;3.15;1.50;;;;;;;5.22;47.87;99898.94;5035950;28;20468;-79
2021/03/23 05:04:04;;;;;;;2.85;1.25;;;;;;;5.17;48.26;99885.34;5036411;28;20045;-80
2021/03/23 05:06:30;;;;;;;4.35;2.08;;;;;;;5.20;47.63;99892.94;5020566;28;20472;-80
2021/03/23 05:08:56;;;;;;;4.53;1.45;;;;;;;5.30;46.59;99910.25;5036302;28;20037;-79
2021/03/23 05:11:32;;;;;;;1.40;1.30;;;;;;;5.21;47.12;99893.72;5036272;28;20037;-80
2021/03/23 05:13:59;;;;;;;1.20;1.10;;;;;;;5.36;47.61;99914.41;5035691;28;20040;-79
2021/03/23 05:16:25;;;;;;;1.17;1.08;;;;;;;5.28;47.75;99924.38;5035547;28;20495;-79
2021/03/23 05:18:51;;;;;;;1.40;1.30;;;;;;;5.35;47.34;99924.66;5037165;28;20092;-78
2021/03/23 05:21:17;;;;;;;2.95;1.20;;;;;;;5.36;46.95;99928.22;5039631;28;20119;-79
2021/03/23 05:23:42;;;;;;;1.65;1.30;;;;;;;5.39;46.42;99925.59;5038544;28;20036;-79
2021/03/23 05:28:53;;;;;;;;;;;;;;;5.48;45.62;99931.84;5057564;28;20060;-79
2021/03/23 05:31:19;;;;;;;0.95;0.90;;;;;;;5.81;43.25;99949.69;5038738;28;20381;-79
2021/03/23 05:33:45;;;;;;;2.90;1.17;;;;;;;6.26;41.63;99920.22;5039102;28;20040;-79
2021/03/23 05:36:11;;;;;;;2.35;1.10;;;;;;;6.98;40.25;99930.97;5038419;28;20029;-79
2021/03/23 05:38:37;;;;;;;2.40;1.33;;;;;;;7.12;39.84;99930.59;5038236;28;20119;-79
2021/03/23 05:41:11;;;;;;;1.90;1.10;;;;;;;7.41;38.87;99943.41;5056145;28;20029;-79
2021/03/23 05:43:47;;;;;;;1.35;1.25;;;;;;;7.75;38.51;99934.56;5052923;28;20032;-79
2021/03/23 05:46:32;;;;;;;4.50;1.40;;;;;;;8.73;37.40;99948.03;5038031;28;20064;-79
2021/03/23 05:49:28;;;;;;;1.20;1.10;;;;;;;8.82;37.09;99948.69;5038308;28;20032;-79
2021/03/23 05:52:07;;;;;;;1.88;1.17;;;;;;;7.74;39.84;99957.91;5037895;28;20025;-79
2021/03/23 05:54:58;;;;;;;2.22;1.50;;;;;;;7.93;38.83;99954.47;5037825;28;20063;-79
2021/03/23 05:57:44;;;;;;;4.38;1.20;;;;;;;7.20;40.42;99946.31;5055726;28;20025;-78
2021/03/23 06:00:28;;;;;;;1.92;1.40;;;;;;;7.03;40.63;99952.84;5055264;28;20467;-79
2021/03/23 06:03:20;;;;;;;2.38;1.52;;;;;;;7.40;38.45;99947.31;5037888;28;20037;-79
2021/03/23 06:06:19;;;;;;;3.90;1.60;;;;;;;6.76;40.23;99949.56;5038219;28;20090;-79
2021/03/23 06:08:49;;;;;;;3.75;1.48;;;;;;;6.71;41.40;99952.59;5055562;28;20411;-79
2021/03/23 06:11:24;;;;;;;1.17;1.08;;;;;;;6.53;42.28;99962.19;5037852;28;20414;-78
2021/03/23 06:13:58;;;;;;;1.48;1.30;;;;;;;6.54;42.54;99952.75;5037318;28;20029;-78
2021/03/23 06:16:47;;;;;;;1.63;1.13;;;;;;;6.49;42.54;99961.25;5037306;28;20029;-78
2021/03/23 06:19:44;;;;;;;1.88;1.23;;;;;;;6.46;43.67;99957.25;5033695;28;20428;-78
2021/03/23 06:22:32;;;;;;;1.73;0.98;;;;;;;6.41;44.23;99976.78;5035253;28;20475;-78
2021/03/23 06:25:22;;;;;;;2.30;1.55;;;;;;;6.39;45.49;99983.78;5033746;28;20036;-78
2021/03/23 06:27:58;;;;;;;4.20;2.65;;;;;;;6.32;45.16;99978.81;5033915;28;20052;-78
2021/03/23 06:30:54;;;;;;;1.58;1.38;;;;;;;6.28;45.15;99975.13;5035289;28;20380;-78
2021/03/23 06:33:24;;;;;;;2.30;1.52;;;;;;;6.38;45.76;99982.19;5033532;28;20029;-78
2021/03/23 06:36:02;;;;;;;11.48;6.32;;;;;;;6.36;45.53;99984.50;5033938;28;20036;-78
2021/03/23 06:38:33;;;;;;;5.07;1.90;;;;;;;6.46;45.06;99978.53;5033744;28;20463;-78
2021/03/23 06:41:22;;;;;;;3.00;1.40;;;;;;;6.46;43.43;99995.94;5033558;28;20079;-78
2021/03/23 06:43:57;;;;;;;6.18;1.58;;;;;;;6.72;44.49;99987.38;5034218;28;20504;-74
2021/03/23 06:46:28;;;;;;;3.97;1.65;;;;;;;6.77;44.48;99973.34;5039550;28;20067;-78
2021/03/23 06:49:07;;;;;;;2.03;1.35;;;;;;;6.67;44.39;99968.25;5034025;28;20029;-79
2021/03/23 06:51:33;;;;;;;1.63;1.13;;;;;;;6.69;45.13;99982.53;5035281;28;20040;-78
2021/03/23 06:54:24;;;;;;;1.83;1.50;;;;;;;6.56;44.71;99969.81;5034380;28;20022;-78
2021/03/23 06:57:12;;;;;;;5.10;1.55;;;;;;;6.59;44.94;99998.72;5034596;28;20079;-79
2021/03/23 07:00:20;;;;;;;2.03;1.38;;;;;;;6.60;45.47;100006.69;5033577;28;20033;-79
2021/03/23 07:02:54;;;;;;;1.20;1.10;;;;;;;6.59;44.59;100013.34;5031702;28;20029;-78
2021/03/23 07:05:35;;;;;;;3.70;1.25;;;;;;;6.52;44.12;100005.63;5034727;28;20084;-78
2021/03/23 07:08:18;;;;;;;1.92;1.38;;;;;;;6.54;44.42;100003.31;5032914;28;20032;-79
2021/03/23 07:11:01;;;;;;;2.08;1.70;;;;;;;6.59;43.61;99998.72;5035151;28;20026;-78
2021/03/23 07:13:30;;;;;;;1.48;1.35;;;;;;;6.43;43.79;99984.75;5033810;28;20029;-79
2021/03/23 07:16:11;;;;;;;2.47;1.88;;;;;;;6.72;43.44;100017.78;5033735;28;20033;-78
2021/03/23 07:18:40;;;;;;;3.03;2.13;;;;;;;6.74;42.91;100003.63;5033213;28;20029;-79
2021/03/23 07:21:14;;;;;;;1.63;1.35;;;;;;;6.69;43.58;100012.94;5052512;28;20045;-78
2021/03/23 07:23:41;;;;;;;1.23;1.13;;;;;;;6.62;42.96;100021.00;5054292;28;20043;-78
2021/03/23 07:26:13;;;;;;;1.85;1.55;;;;;;;6.60;43.29;100026.03;5036569;28;20044;-78
2021/03/23 07:28:42;;;;;;;4.72;1.50;;;;;;;6.50;43.92;100027.28;5036391;28;20040;-78
2021/03/23 07:31:26;;;;;;;3.88;1.80;;;;;;;6.55;43.99;100038.13;5036395;28;20120;-79
2021/03/23 07:34:06;;;;;;;4.75;2.40;;;;;;;6.58;44.38;100033.88;5036748;28;20033;-75
2021/03/23 07:36:39;;;;;;;3.45;2.25;;;;;;;6.52;44.90;100049.84;5037165;28;20380;-79
2021/03/23 07:39:04;;;;;;;6.18;2.30;;;;;;;6.78;43.93;100043.28;5036284;28;20021;-79
2021/03/23 07:41:37;;;;;;;3.60;2.08;;;;;;;7.51;42.64;100046.19;5036102;28;20042;-78
2021/03/23 07:44:12;;;;;;;2.90;1.63;;;;;;;7.44;42.33;100047.88;5036405;28;20025;-78
2021/03/23 07:46:47;;;;;;;4.15;1.98;;;;;;;7.56;41.03;100056.19;5036547;28;20275;-79
2021/03/23 07:49:22;;;;;;;4.43;2.20;;;;;;;7.27;42.51;100058.03;5036835;28;20105;-79
2021/03/23 07:52:18;;;;;;;4.28;2.60;;;;;;;7.39;43.41;100051.69;5036383;28;20036;-79
2021/03/23 07:54:44;;;;;;;6.78;4.95;;;;;;;7.17;42.99;100058.47;5036031;28;20029;-79
2021/03/23 07:57:43;;;;;;;5.15;2.75;;;;;;;7.10;42.70;100041.63;5035879;28;20037;-79
2021/03/23 08:00:18;;;;;;;3.45;2.60;;;;;;;7.14;41.25;100058.34;5036601;28;20037;-79
2021/03/23 08:03:13;;;;;;;4.18;2.40;;;;;;;7.12;41.32;100050.38;5036024;28;20060;-79
2021/03/23 08:06:06;;;;;;;6.18;3.47;;;;;;;8.27;38.48;100055.69;5037215;28;20040;-79
2021/03/23 08:08:44;;;;;;;2.70;1.83;;;;;;;8.80;35.95;100053.66;5035996;28;20040;-79
2021/03/23 08:11:24;;;;;;;1.70;1.58;;;;;;;8.35;36.26;100057.47;5036947;28;20033;-79
2021/03/23 08:14:06;;;;;;;3.13;1.67;;;;;;;8.27;36.60;100055.69;5036316;28;20047;-79
2021/03/23 08:17:00;;;;;;;5.25;2.80;;;;;;;8.12;37.33;100086.88;5054558;28;20085;-79
2021/03/23 08:19:38;;;;;;;2.10;1.38;;;;;;;7.77;36.77;100070.72;5035374;28;20140;-79
2021/03/23 08:22:22;;;;;;;5.03;1.75;;;;;;;7.27;37.63;100102.31;5038806;28;20060;-79
2021/03/23 08:25:05;;;;;;;;;;;;;;;7.13;38.47;100101.78;5041365;28;20082;-80
2021/03/23 08:27:59;;;;;;;3.88;1.92;;;;;;;6.99;39.70;100106.84;5040299;28;19917;-80
2021/03/23 08:30:43;;;;;;;3.20;2.17;;;;;;;6.73;41.47;100146.59;5041267;28;20067;-79
2021/03/23 08:33:11;;;;;;;;;;;;;;;6.29;45.13;100124.00;5043529;28;20095;-79
2021/03/23 08:35:56;;;;;;;2.55;2.05;;;;;;;6.56;45.12;100119.91;5041890;28;19913;-79
2021/03/23 08:38:42;;;;;;;;;;;;;;;7.23;44.59;100112.44;5043602;28;20120;-80
2021/03/23 08:41:21;;;;;;;2.90;2.38;;;;;;;7.53;44.13;100115.84;5041502;28;19912;-80
2021/03/23 08:43:47;;;;;;;2.10;1.00;;;;;;;8.18;42.52;100113.19;5040570;28;20029;-80
2021/03/23 08:46:18;;;;;;;2.72;2.38;;;;;;;8.51;42.43;100115.00;5023004;28;20040;-79
2021/03/23 08:49:16;;;;;;;3.30;2.30;;;;;;;9.29;38.45;100111.69;5038939;28;20059;-79
2021/03/23 08:51:47;;;;;;;4.03;2.90;;;;;;;9.28;37.36;100118.41;5039157;28;20033;-79
2021/03/23 08:54:45;;;;;;;2.30;1.88;;;;;;;9.14;38.04;100077.19;5038786;28;20021;-79
2021/03/23 08:57:12;;;;;;;4.32;2.85;;;;;;;8.26;38.89;100128.91;5038568;28;20025;-79
2021/03/23 08:59:37;;;;;;;7.88;2.72;;;;;;;8.07;40.33;100115.63;5039472;28;20033;-79
2021/03/23 09:02:09;;;;;;;4.38;2.70;;;;;;;8.24;39.67;100116.53;5038711;28;20383;-79
2021/03/23 09:04:39;;;;;;;6.85;2.42;;;;;;;8.16;40.37;100121.06;5039709;28;20032;-79
2021/03/23 09:07:19;;;;;;;6.88;2.17;;;;;;;8.19;38.71;100114.00;5040054;28;20128;-79
2021/03/23 09:09:54;;;;;;;3.50;2.63;;;;;;;7.97;39.55;100118.06;5039712;28;20048;-79
2021/03/23 09:12:35;;;;;;;11.02;8.13;;;;;;;8.00;40.29;100111.84;5040488;28;20602;-79
2021/03/23 09:15:15;;;;;;;6.78;3.40;;;;;;;8.96;37.95;100055.69;5039581;28;20032;-79
2021/03/23 09:18:03;;;;;;;1.95;1.85;;;;;;;9.63;35.82;100049.06;5038668;28;20025;-77
2021/03/23 09:20:36;;;;;;;1.98;1.67;;;;;;;10.34;34.01;100077.75;5039546;28;20487;-79
2021/03/23 09:23:20;;;;;;;2.85;2.33;;;;;;;9.95;33.84;100110.97;5039044;28;20029;-78
2021/03/23 09:25:49;;;;;;;2.53;2.33;;;;;;;9.12;35.01;100107.28;5038603;28;20025;-79
2021/03/23 09:29:12;;;;;;;2.42;1.58;;;;;;;9.10;35.13;100122.66;5038662;28;20495;-78
2021/03/23 09:31:48;;;;;;;5.90;4.10;;;;;;;8.62;36.70;100122.47;5043271;28;20068;-79
2021/03/23 09:34:51;;;;;;;4.00;2.60;;;;;;;7.95;39.51;100134.25;5029862;28;20049;-79
2021/03/23 09:37:47;;;;;;;4.35;2.38;;;;;;;8.19;41.24;100130.63;5039914;28;20025;-79
2021/03/23 09:40:25;;;;;;;6.28;2.80;;;;;;;8.11;42.16;100135.16;5040375;28;20041;-78
2021/03/23 09:43:02;;;;;;;2.47;1.80;;;;;;;7.58;41.13;100120.38;5038812;28;20025;-79
2021/03/23 09:45:32;;;;;;;2.58;1.95;;;;;;;7.80;40.96;100155.13;5038597;28;20036;-79
2021/03/23 09:48:00;;;;;;;2.25;1.80;;;;;;;7.78;40.94;100149.94;5038913;28;20036;-79
2021/03/23 09:50:40;;;;;;;2.85;1.98;;;;;;;7.80;41.88;100163.41;5040198;28;20024;-80
2021/03/23 09:53:22;;;;;;;2.83;1.40;;;;;;;7.39;43.25;100164.38;5046218;28;20107;-80
2021/03/23 09:55:48;;;;;;;2.25;2.05;;;;;;;7.25;43.20;100171.03;5062483;28;20040;-81
2021/03/23 09:58:26;;;;;;;3.67;2.10;;;;;;;6.68;43.71;100099.81;5042502;28;20021;-82
2021/03/23 10:00:52;;;;;;;1.88;1.65;;;;;;;7.05;42.66;100160.81;5041503;28;20036;-81
2021/03/23 10:03:35;;;;;;;5.95;2.33;;;;;;;7.30;43.16;100178.31;5041417;28;20048;-81
2021/03/23 10:06:10;;;;;;;3.20;2.38;;;;;;;7.32;43.56;100190.66;5060894;28;20526;-80
2021/03/23 10:08:36;;;;;;;11.60;2.90;;;;;;;6.78;46.09;100207.25;5041753;28;20123;-85
2021/03/23 10:11:10;;;;;;;6.30;2.17;;;;;;;6.51;48.38;100213.28;5041263;28;20056;-81
2021/03/23 10:13:38;;;;;;;2.45;2.10;;;;;;;6.28;49.69;100234.84;5062388;28;20025;-83
2021/03/23 10:16:08;;;;;;;3.83;2.08;;;;;;;6.00;51.03;100229.78;5059239;28;20028;-81
2021/03/23 10:18:39;;;;;;;3.35;2.35;;;;;;;5.98;49.54;100220.22;5055783;28;20037;-85
2021/03/23 10:21:10;;;;;;;3.85;3.15;;;;;;;6.01;51.94;100242.44;5056008;28;20048;-82
2021/03/23 10:23:46;;;;;;;2.85;2.40;;;;;;;5.78;54.28;100239.09;5059444;28;20092;-86
2021/03/23 10:26:12;;;;;;;3.05;1.83;;;;;;;5.87;51.17;100221.69;5043042;28;20032;-87
2021/03/23 10:28:52;;;;;;;4.65;2.75;;;;;;;6.05;51.95;100228.78;5043585;28;20037;-85
2021/03/23 10:31:32;;;;;;;6.53;4.47;;;;;;;6.65;50.08;100221.31;5049039;28;20105;-80
2021/03/23 10:34:19;;;;;;;4.30;2.92;;;;;;;6.49;48.83;100229.38;5047395;28;20093;-80
2021/03/23 10:37:06;;;;;;;2.50;2.30;;;;;;;6.74;45.71;100231.16;5061297;28;20464;-82
2021/03/23 10:39:43;;;;;;;4.20;2.50;;;;;;;7.15;43.61;100226.78;5057281;28;20029;-80
2021/03/23 10:42:25;;;;;;;2.53;2.20;;;;;;;7.04;44.32;100231.13;5040795;28;20491;-82
2021/03/23 10:45:10;;;;;;;3.05;1.85;;;;;;;7.10;44.14;100238.06;5038317;28;20051;-81
2021/03/23 10:47:39;;;;;;;3.38;2.50;;;;;;;7.08;43.48;100232.88;5040045;28;20029;-80
2021/03/23 10:50:13;;;;;;;1.85;1.63;;;;;;;7.24;43.20;100241.34;5040878;28;20056;-80
2021/03/23 10:52:39;;;;;;;3.08;2.33;;;;;;;7.18;43.49;100239.94;5042912;28;20036;-80
2021/03/23 10:55:27;;;;;;;8.23;6.50;;;;;;;7.26;44.11;100260.41;5046022;28;20029;-81
2021/03/23 10:58:13;;;;;;;2.85;2.22;;;;;;;6.96;45.02;100249.41;5061916;28;20021;-85
2021/03/23 11:00:39;;;;;;;2.15;1.50;;;;;;;7.22;42.22;100282.41;5050832;28;20127;-85
2021/03/23 11:03:23;;;;;;;5.72;4.68;;;;;;;8.05;42.07;100264.00;5040540;28;20033;-81
2021/03/23 11:05:51;;;;;;;5.55;3.22;;;;;;;8.76;40.61;100269.13;5043181;28;20045;-81
2021/03/23 11:08:17;;;;;;;4.88;2.42;;;;;;;8.45;41.06;100266.16;5046032;28;20025;-81
2021/03/23 11:10:43;;;;;;;4.75;3.30;;;;;;;8.49;40.58;100269.84;5027495;28;20040;-81
2021/03/23 11:13:14;;;;;;;7.70;2.90;;;;;;;8.44;38.83;100264.53;5044850;28;20032;-80
2021/03/23 11:15:45;;;;;;;2.38;1.98;;;;;;;8.33;40.08;100275.25;5045541;28;20047;-80
2021/03/23 11:18:21;;;;;;;1.90;1.17;;;;;;;7.74;40.18;100293.00;5045882;28;20036;-80
2021/03/23 11:20:47;;;;;;;2.22;1.75;;;;;;;7.61;40.77;100266.41;5023258;28;20059;-82
2021/03/23 11:23:28;;;;;;;3.20;2.55;;;;;;;7.88;39.15;100273.31;5043927;28;20045;-82
2021/03/23 11:25:54;;;;;;;3.20;2.13;;;;;;;7.69;39.71;100262.75;5047099;28;20025;-81
2021/03/23 11:28:19;;;;;;;3.45;2.17;;;;;;;8.08;39.69;100257.75;5046564;28;20036;-82
2021/03/23 11:30:45;;;;;;;4.63;2.88;;;;;;;8.26;40.14;100241.75;5052595;28;20033;-81
2021/03/23 11:33:12;;;;;;;2.97;2.00;;;;;;;8.38;39.61;100256.44;5046819;28;20025;-81
2021/03/23 11:35:39;;;;;;;2.50;2.10;;;;;;;8.02;40.53;100253.59;5048729;28;20088;-81
2021/03/23 11:38:04;;;;;;;4.63;2.58;;;;;;;8.14;40.31;100261.94;5029268;28;20033;-80
2021/03/23 11:40:30;;;;;;;4.10;2.38;;;;;;;8.51;40.61;100284.16;5046587;28;20029;-80
2021/03/23 11:42:56;;;;;;;3.95;2.17;;;;;;;8.99;39.24;100274.19;5047597;28;20419;-80
2021/03/23 11:45:34;;;;;;;6.88;3.42;;;;;;;8.66;37.86;100219.69;5041368;28;20118;-80
2021/03/23 11:48:06;;;;;;;4.05;1.88;;;;;;;8.16;38.26;100276.25;5038422;28;20388;-80
2021/03/23 11:50:34;;;;;;;2.70;2.38;;;;;;;7.96;39.27;100286.28;5038570;28;20454;-80
2021/03/23 11:53:00;;;;;;;3.45;2.10;;;;;;;7.68;40.11;100299.91;5050187;28;20044;-82
2021/03/23 11:55:36;;;;;;;7.47;3.00;;;;;;;7.63;39.96;100288.25;5045620;28;20504;-89
2021/03/23 11:58:04;;;;;;;4.53;2.25;;;;;;;7.97;40.23;100296.19;5045422;28;20083;-80
2021/03/23 12:00:31;;;;;;;3.42;1.85;;;;;;;7.99;38.39;100293.91;5041633;28;20029;-81
2021/03/23 12:02:58;;;;;;;3.22;2.63;;;;;;;8.51;38.69;100292.47;5041949;28;20372;-80
2021/03/23 12:05:25;;;;;;;3.35;2.65;;;;;;;8.57;38.83;100291.91;5041238;28;20124;-80
2021/03/23 12:08:00;;;;;;;2.08;1.48;;;;;;;8.44;36.90;100295.03;5041806;28;20131;-80